Terminal Aerodrome Forecast
Issued by NWS

Home | Current Version | Previous Version | Text Only | Print | Product List | Glossary On
Versions: 1 2 3 4 5 6 7 8 9 10 11 12 13 14 15 16 17 18 19 20 21 22
662
FTUS43 KDLH 261546 AAC
TAFHYR
TAF AMD
KHYR 261546Z 2616/2712 19005KT P6SM VCSH SCT008 BKN080
      TEMPO 2616/2617 BKN008
     FM261700 23010G18KT P6SM SCT100
     FM270100 00000KT 3SM BR VCSH OVC040=

USA.gov is the U.S. government's official web portal to all federal, state and local government web resources and services.